sensor_id;sensor_type;location;lat;lon;timestamp;temperature;humidity
45066;DHT22;30830;53.704;10.004;2022-09-01T00:01:26;12.80;99.90
45066;DHT22;30830;53.704;10.004;2022-09-01T00:03:53;12.80;99.90
45066;DHT22;30830;53.704;10.004;2022-09-01T00:06:21;12.70;99.90
45066;DHT22;30830;53.704;10.004;2022-09-01T00:08:52;12.70;99.90
45066;DHT22;30830;53.704;10.004;2022-09-01T00:11:19;12.70;99.90
45066;DHT22;30830;53.704;10.004;2022-09-01T00:13:44;12.70;99.90
45066;DHT22;30830;53.704;10.004;2022-09-01T00:16:10;12.70;99.90
45066;DHT22;30830;53.704;10.004;2022-09-01T00:18:41;12.70;99.90
45066;DHT22;30830;53.704;10.004;2022-09-01T00:21:11;12.70;99.90
45066;DHT22;30830;53.704;10.004;2022-09-01T00:23:37;12.70;99.90
45066;DHT22;30830;53.704;10.004;2022-09-01T00:26:03;12.70;99.90
45066;DHT22;30830;53.704;10.004;2022-09-01T00:28:32;12.60;99.90
45066;DHT22;30830;53.704;10.004;2022-09-01T00:30:58;12.60;99.90
45066;DHT22;30830;53.704;10.004;2022-09-01T00:33:23;12.60;99.90
45066;DHT22;30830;53.704;10.004;2022-09-01T00:35:49;12.60;99.90
45066;DHT22;30830;53.704;10.004;2022-09-01T00:38:14;12.60;99.90
45066;DHT22;30830;53.704;10.004;2022-09-01T00:40:40;12.60;99.90
45066;DHT22;30830;53.704;10.004;2022-09-01T00:43:21;12.60;99.90
45066;DHT22;30830;53.704;10.004;2022-09-01T00:45:48;12.60;99.90
45066;DHT22;30830;53.704;10.004;2022-09-01T00:48:16;12.50;99.90
45066;DHT22;30830;53.704;10.004;2022-09-01T00:50:43;12.50;99.90
45066;DHT22;30830;53.704;10.004;2022-09-01T00:53:09;12.50;99.90
45066;DHT22;30830;53.704;10.004;2022-09-01T00:55:36;12.50;99.90
45066;DHT22;30830;53.704;10.004;2022-09-01T00:58:03;12.40;99.90
45066;DHT22;30830;53.704;10.004;2022-09-01T01:00:32;12.40;99.90
45066;DHT22;30830;53.704;10.004;2022-09-01T01:02:58;12.40;99.90
45066;DHT22;30830;53.704;10.004;2022-09-01T01:05:26;12.40;99.90
45066;DHT22;30830;53.704;10.004;2022-09-01T01:07:55;12.40;99.90
45066;DHT22;30830;53.704;10.004;2022-09-01T01:10:22;12.40;99.90
45066;DHT22;30830;53.704;10.004;2022-09-01T01:12:48;12.40;99.90
45066;DHT22;30830;53.704;10.004;2022-09-01T01:15:16;12.30;99.90
45066;DHT22;30830;53.704;10.004;2022-09-01T01:17:41;12.30;99.90
45066;DHT22;30830;53.704;10.004;2022-09-01T01:20:08;12.30;99.90
45066;DHT22;30830;53.704;10.004;2022-09-01T01:25:51;12.20;99.90
45066;DHT22;30830;53.704;10.004;2022-09-01T01:28:18;12.20;99.90
45066;DHT22;30830;53.704;10.004;2022-09-01T01:30:51;12.20;99.90
45066;DHT22;30830;53.704;10.004;2022-09-01T01:33:23;12.20;99.90
45066;DHT22;30830;53.704;10.004;2022-09-01T01:35:50;12.20;99.90
45066;DHT22;30830;53.704;10.004;2022-09-01T01:38:16;12.20;99.90
45066;DHT22;30830;53.704;10.004;2022-09-01T01:40:44;12.20;99.90
45066;DHT22;30830;53.704;10.004;2022-09-01T01:43:10;12.20;99.90
45066;DHT22;30830;53.704;10.004;2022-09-01T01:45:47;12.10;99.90
45066;DHT22;30830;53.704;10.004;2022-09-01T01:48:20;12.10;99.90
45066;DHT22;30830;53.704;10.004;2022-09-01T01:50:50;12.10;99.90
45066;DHT22;30830;53.704;10.004;2022-09-01T01:53:17;12.00;99.90
45066;DHT22;30830;53.704;10.004;2022-09-01T01:55:44;12.00;99.90
45066;DHT22;30830;53.704;10.004;2022-09-01T01:58:10;12.00;99.90
45066;DHT22;30830;53.704;10.004;2022-09-01T02:00:41;12.00;99.90
45066;DHT22;30830;53.704;10.004;2022-09-01T02:03:12;12.00;99.90
45066;DHT22;30830;53.704;10.004;2022-09-01T02:05:41;12.00;99.90
45066;DHT22;30830;53.704;10.004;2022-09-01T02:08:09;12.00;99.90
45066;DHT22;30830;53.704;10.004;2022-09-01T02:10:44;11.90;99.90
45066;DHT22;30830;53.704;10.004;2022-09-01T02:13:13;11.90;99.90
45066;DHT22;30830;53.704;10.004;2022-09-01T02:15:47;11.90;99.90
45066;DHT22;30830;53.704;10.004;2022-09-01T02:18:33;11.90;99.90
45066;DHT22;30830;53.704;10.004;2022-09-01T02:21:05;11.90;99.90
45066;DHT22;30830;53.704;10.004;2022-09-01T02:23:35;11.90;99.90
45066;DHT22;30830;53.704;10.004;2022-09-01T02:26:01;11.80;99.90
45066;DHT22;30830;53.704;10.004;2022-09-01T02:28:30;11.80;99.90
45066;DHT22;30830;53.704;10.004;2022-09-01T02:30:56;11.80;99.90
45066;DHT22;30830;53.704;10.004;2022-09-01T02:33:22;11.80;99.90
45066;DHT22;30830;53.704;10.004;2022-09-01T02:35:52;11.70;99.90
45066;DHT22;30830;53.704;10.004;2022-09-01T02:38:18;11.70;99.90
45066;DHT22;30830;53.704;10.004;2022-09-01T02:40:46;11.70;99.90
45066;DHT22;30830;53.704;10.004;2022-09-01T02:43:14;11.70;99.90
45066;DHT22;30830;53.704;10.004;2022-09-01T02:45:40;11.60;99.90
45066;DHT22;30830;53.704;10.004;2022-09-01T02:48:08;11.60;99.90
45066;DHT22;30830;53.704;10.004;2022-09-01T02:50:39;11.60;99.90
45066;DHT22;30830;53.704;10.004;2022-09-01T02:53:07;11.60;99.90
45066;DHT22;30830;53.704;10.004;2022-09-01T02:55:37;11.60;99.90
45066;DHT22;30830;53.704;10.004;2022-09-01T02:58:03;11.50;99.90
45066;DHT22;30830;53.704;10.004;2022-09-01T03:00:29;11.60;99.90
45066;DHT22;30830;53.704;10.004;2022-09-01T03:02:59;11.50;99.90
45066;DHT22;30830;53.704;10.004;2022-09-01T03:05:27;11.50;99.90
45066;DHT22;30830;53.704;10.004;2022-09-01T03:07:56;11.50;99.90
45066;DHT22;30830;53.704;10.004;2022-09-01T03:10:24;11.50;99.90
45066;DHT22;30830;53.704;10.004;2022-09-01T03:12:53;11.50;99.90
45066;DHT22;30830;53.704;10.004;2022-09-01T03:15:19;11.50;99.90
45066;DHT22;30830;53.704;10.004;2022-09-01T03:17:46;11.50;99.90
45066;DHT22;30830;53.704;10.004;2022-09-01T03:20:12;11.50;99.90
45066;DHT22;30830;53.704;10.004;2022-09-01T03:22:38;11.50;99.90
45066;DHT22;30830;53.704;10.004;2022-09-01T03:25:04;11.50;99.90
45066;DHT22;30830;53.704;10.004;2022-09-01T03:27:29;11.40;99.90
45066;DHT22;30830;53.704;10.004;2022-09-01T03:29:55;11.40;99.90
45066;DHT22;30830;53.704;10.004;2022-09-01T03:32:20;11.40;99.90
45066;DHT22;30830;53.704;10.004;2022-09-01T03:34:46;11.40;99.90
45066;DHT22;30830;53.704;10.004;2022-09-01T03:37:11;11.30;99.90
45066;DHT22;30830;53.704;10.004;2022-09-01T03:39:38;11.30;99.90
45066;DHT22;30830;53.704;10.004;2022-09-01T03:42:04;11.30;99.90
45066;DHT22;30830;53.704;10.004;2022-09-01T03:44:32;11.30;99.90
45066;DHT22;30830;53.704;10.004;2022-09-01T03:46:59;11.30;99.90
45066;DHT22;30830;53.704;10.004;2022-09-01T03:49:25;11.30;99.90
45066;DHT22;30830;53.704;10.004;2022-09-01T03:51:53;11.20;99.90
45066;DHT22;30830;53.704;10.004;2022-09-01T03:54:19;11.20;99.90
45066;DHT22;30830;53.704;10.004;2022-09-01T03:56:47;11.20;99.90
45066;DHT22;30830;53.704;10.004;2022-09-01T03:59:13;11.20;99.90
45066;DHT22;30830;53.704;10.004;2022-09-01T04:01:41;11.20;99.90
45066;DHT22;30830;53.704;10.004;2022-09-01T04:04:09;11.10;99.90
45066;DHT22;30830;53.704;10.004;2022-09-01T04:06:39;11.10;99.90
45066;DHT22;30830;53.704;10.004;2022-09-01T04:09:05;11.10;99.90
45066;DHT22;30830;53.704;10.004;2022-09-01T04:11:31;11.10;99.90
45066;DHT22;30830;53.704;10.004;2022-09-01T04:13:58;11.10;99.90
45066;DHT22;30830;53.704;10.004;2022-09-01T04:16:27;11.10;99.90
45066;DHT22;30830;53.704;10.004;2022-09-01T04:19:18;11.10;99.90
45066;DHT22;30830;53.704;10.004;2022-09-01T04:21:48;11.10;99.90
45066;DHT22;30830;53.704;10.004;2022-09-01T04:24:18;11.00;99.90
45066;DHT22;30830;53.704;10.004;2022-09-01T04:26:46;11.00;99.90
45066;DHT22;30830;53.704;10.004;2022-09-01T04:29:13;11.00;99.90
45066;DHT22;30830;53.704;10.004;2022-09-01T04:31:39;11.00;99.90
45066;DHT22;30830;53.704;10.004;2022-09-01T04:34:07;11.00;99.90
45066;DHT22;30830;53.704;10.004;2022-09-01T04:36:41;10.90;99.90
45066;DHT22;30830;53.704;10.004;2022-09-01T04:39:09;10.90;99.90
45066;DHT22;30830;53.704;10.004;2022-09-01T04:41:39;10.90;99.90
45066;DHT22;30830;53.704;10.004;2022-09-01T04:44:06;10.90;99.90
45066;DHT22;30830;53.704;10.004;2022-09-01T04:46:35;10.90;99.90
45066;DHT22;30830;53.704;10.004;2022-09-01T04:49:03;10.90;99.90
45066;DHT22;30830;53.704;10.004;2022-09-01T04:51:37;10.90;99.90
45066;DHT22;30830;53.704;10.004;2022-09-01T04:54:03;10.90;99.90
45066;DHT22;30830;53.704;10.004;2022-09-01T04:56:32;10.90;99.90
45066;DHT22;30830;53.704;10.004;2022-09-01T04:59:00;10.90;99.90
45066;DHT22;30830;53.704;10.004;2022-09-01T05:01:26;10.90;99.90
45066;DHT22;30830;53.704;10.004;2022-09-01T05:03:52;10.90;99.90
45066;DHT22;30830;53.704;10.004;2022-09-01T05:06:23;10.90;99.90
45066;DHT22;30830;53.704;10.004;2022-09-01T05:08:49;10.90;99.90
45066;DHT22;30830;53.704;10.004;2022-09-01T05:11:16;10.90;99.90
45066;DHT22;30830;53.704;10.004;2022-09-01T05:13:46;10.90;99.90
45066;DHT22;30830;53.704;10.004;2022-09-01T05:16:14;10.90;99.90
45066;DHT22;30830;53.704;10.004;2022-09-01T05:18:42;11.00;99.90
45066;DHT22;30830;53.704;10.004;2022-09-01T05:21:14;11.00;99.90
45066;DHT22;30830;53.704;10.004;2022-09-01T05:23:41;10.90;99.90
45066;DHT22;30830;53.704;10.004;2022-09-01T05:26:15;10.90;99.90
45066;DHT22;30830;53.704;10.004;2022-09-01T05:28:52;10.90;99.90
45066;DHT22;30830;53.704;10.004;2022-09-01T05:31:22;11.00;99.90
45066;DHT22;30830;53.704;10.004;2022-09-01T05:33:49;11.00;99.90
45066;DHT22;30830;53.704;10.004;2022-09-01T05:36:18;11.00;99.90
45066;DHT22;30830;53.704;10.004;2022-09-01T05:38:44;11.00;99.90
45066;DHT22;30830;53.704;10.004;2022-09-01T05:41:13;11.10;99.90
45066;DHT22;30830;53.704;10.004;2022-09-01T05:43:45;11.10;99.90
45066;DHT22;30830;53.704;10.004;2022-09-01T05:46:15;11.20;99.90
45066;DHT22;30830;53.704;10.004;2022-09-01T05:48:42;11.30;99.90
45066;DHT22;30830;53.704;10.004;2022-09-01T05:51:10;11.40;99.90
45066;DHT22;30830;53.704;10.004;2022-09-01T05:53:36;11.40;99.90
45066;DHT22;30830;53.704;10.004;2022-09-01T05:56:05;11.50;99.90
45066;DHT22;30830;53.704;10.004;2022-09-01T05:58:35;11.60;99.90
45066;DHT22;30830;53.704;10.004;2022-09-01T06:01:02;11.60;99.90
45066;DHT22;30830;53.704;10.004;2022-09-01T06:03:28;11.70;99.90
45066;DHT22;30830;53.704;10.004;2022-09-01T06:06:03;11.70;99.90
45066;DHT22;30830;53.704;10.004;2022-09-01T06:08:31;11.80;99.90
45066;DHT22;30830;53.704;10.004;2022-09-01T06:10:56;11.90;99.90
45066;DHT22;30830;53.704;10.004;2022-09-01T06:13:22;12.00;99.90
45066;DHT22;30830;53.704;10.004;2022-09-01T06:15:48;12.10;99.90
45066;DHT22;30830;53.704;10.004;2022-09-01T06:18:14;12.20;99.90
45066;DHT22;30830;53.704;10.004;2022-09-01T06:20:43;12.20;99.90
45066;DHT22;30830;53.704;10.004;2022-09-01T06:23:10;12.30;99.90
45066;DHT22;30830;53.704;10.004;2022-09-01T06:25:43;12.40;99.90
45066;DHT22;30830;53.704;10.004;2022-09-01T06:28:14;12.50;99.90
45066;DHT22;30830;53.704;10.004;2022-09-01T06:30:41;12.60;99.90
45066;DHT22;30830;53.704;10.004;2022-09-01T06:33:10;12.70;99.90
45066;DHT22;30830;53.704;10.004;2022-09-01T06:35:39;12.70;99.90
45066;DHT22;30830;53.704;10.004;2022-09-01T06:38:07;12.90;99.90
45066;DHT22;30830;53.704;10.004;2022-09-01T06:40:34;12.90;99.90
45066;DHT22;30830;53.704;10.004;2022-09-01T06:43:00;13.10;99.90
45066;DHT22;30830;53.704;10.004;2022-09-01T06:45:33;13.20;99.90
45066;DHT22;30830;53.704;10.004;2022-09-01T06:47:59;13.30;99.90
45066;DHT22;30830;53.704;10.004;2022-09-01T06:50:25;13.40;99.90
45066;DHT22;30830;53.704;10.004;2022-09-01T06:52:52;13.50;99.90
45066;DHT22;30830;53.704;10.004;2022-09-01T06:55:26;13.60;99.90
45066;DHT22;30830;53.704;10.004;2022-09-01T06:57:58;13.80;99.90
45066;DHT22;30830;53.704;10.004;2022-09-01T07:00:24;13.90;99.90
45066;DHT22;30830;53.704;10.004;2022-09-01T07:02:56;14.10;99.90
45066;DHT22;30830;53.704;10.004;2022-09-01T07:05:23;14.20;99.90
45066;DHT22;30830;53.704;10.004;2022-09-01T07:07:53;14.40;99.90
45066;DHT22;30830;53.704;10.004;2022-09-01T07:10:25;14.60;99.90
45066;DHT22;30830;53.704;10.004;2022-09-01T07:12:53;14.80;99.90
45066;DHT22;30830;53.704;10.004;2022-09-01T07:15:21;15.00;99.90
45066;DHT22;30830;53.704;10.004;2022-09-01T07:20:15;15.40;99.90
45066;DHT22;30830;53.704;10.004;2022-09-01T07:22:41;15.60;99.90
45066;DHT22;30830;53.704;10.004;2022-09-01T07:25:07;15.80;99.90
45066;DHT22;30830;53.704;10.004;2022-09-01T07:27:35;16.10;99.90
45066;DHT22;30830;53.704;10.004;2022-09-01T07:30:01;16.30;99.90
45066;DHT22;30830;53.704;10.004;2022-09-01T07:32:27;16.50;99.90
45066;DHT22;30830;53.704;10.004;2022-09-01T07:34:55;16.80;99.90
45066;DHT22;30830;53.704;10.004;2022-09-01T07:37:21;17.00;99.90
45066;DHT22;30830;53.704;10.004;2022-09-01T07:39:47;17.20;99.90
45066;DHT22;30830;53.704;10.004;2022-09-01T07:42:15;17.40;99.90
45066;DHT22;30830;53.704;10.004;2022-09-01T07:44:41;17.60;99.90
45066;DHT22;30830;53.704;10.004;2022-09-01T07:47:09;17.80;99.90
45066;DHT22;30830;53.704;10.004;2022-09-01T07:49:35;18.00;99.90
45066;DHT22;30830;53.704;10.004;2022-09-01T07:52:04;18.10;99.90
45066;DHT22;30830;53.704;10.004;2022-09-01T07:54:30;18.30;99.90
45066;DHT22;30830;53.704;10.004;2022-09-01T07:56:58;18.40;99.90
45066;DHT22;30830;53.704;10.004;2022-09-01T07:59:23;18.60;99.90
45066;DHT22;30830;53.704;10.004;2022-09-01T08:01:52;18.70;99.90
45066;DHT22;30830;53.704;10.004;2022-09-01T08:04:17;18.90;99.90
45066;DHT22;30830;53.704;10.004;2022-09-01T08:06:47;19.10;99.90
45066;DHT22;30830;53.704;10.004;2022-09-01T08:09:13;19.20;99.90
45066;DHT22;30830;53.704;10.004;2022-09-01T08:11:39;19.40;99.90
45066;DHT22;30830;53.704;10.004;2022-09-01T08:14:04;19.50;99.90
45066;DHT22;30830;53.704;10.004;2022-09-01T08:16:30;19.60;99.90
45066;DHT22;30830;53.704;10.004;2022-09-01T08:18:57;19.70;99.90
45066;DHT22;30830;53.704;10.004;2022-09-01T08:21:24;19.80;99.90
45066;DHT22;30830;53.704;10.004;2022-09-01T08:23:51;20.00;99.90
45066;DHT22;30830;53.704;10.004;2022-09-01T08:26:19;20.10;99.50
45066;DHT22;30830;53.704;10.004;2022-09-01T08:28:46;20.20;98.50
45066;DHT22;30830;53.704;10.004;2022-09-01T08:31:14;20.20;98.10
45066;DHT22;30830;53.704;10.004;2022-09-01T08:33:40;20.30;98.00
45066;DHT22;30830;53.704;10.004;2022-09-01T08:36:09;20.40;96.90
45066;DHT22;30830;53.704;10.004;2022-09-01T08:38:35;20.40;95.90
45066;DHT22;30830;53.704;10.004;2022-09-01T08:41:02;20.60;97.10
45066;DHT22;30830;53.704;10.004;2022-09-01T08:43:49;20.70;96.00
45066;DHT22;30830;53.704;10.004;2022-09-01T08:46:28;20.70;94.60
45066;DHT22;30830;53.704;10.004;2022-09-01T08:49:00;20.70;95.80
45066;DHT22;30830;53.704;10.004;2022-09-01T08:51:42;20.80;95.30
45066;DHT22;30830;53.704;10.004;2022-09-01T08:56:43;20.90;94.60
45066;DHT22;30830;53.704;10.004;2022-09-01T08:59:10;21.00;95.00
45066;DHT22;30830;53.704;10.004;2022-09-01T09:02:04;21.00;94.80
45066;DHT22;30830;53.704;10.004;2022-09-01T09:05:06;21.00;94.50
45066;DHT22;30830;53.704;10.004;2022-09-01T09:10:36;20.80;94.60
45066;DHT22;30830;53.704;10.004;2022-09-01T09:13:23;20.80;94.10
45066;DHT22;30830;53.704;10.004;2022-09-01T09:18:51;20.90;95.20
45066;DHT22;30830;53.704;10.004;2022-09-01T09:21:32;20.90;94.10
45066;DHT22;30830;53.704;10.004;2022-09-01T09:27:39;20.60;94.20
45066;DHT22;30830;53.704;10.004;2022-09-01T09:30:12;20.50;94.70
45066;DHT22;30830;53.704;10.004;2022-09-01T09:33:05;20.40;94.70
45066;DHT22;30830;53.704;10.004;2022-09-01T09:41:08;20.10;94.40
45066;DHT22;30830;53.704;10.004;2022-09-01T09:46:38;20.20;94.80
45066;DHT22;30830;53.704;10.004;2022-09-01T09:49:28;20.30;94.80
45066;DHT22;30830;53.704;10.004;2022-09-01T09:52:13;20.50;94.30
45066;DHT22;30830;53.704;10.004;2022-09-01T09:54:57;20.50;94.00
45066;DHT22;30830;53.704;10.004;2022-09-01T09:57:23;20.60;94.00
45066;DHT22;30830;53.704;10.004;2022-09-01T09:59:59;20.70;93.50
45066;DHT22;30830;53.704;10.004;2022-09-01T10:02:27;20.80;93.00
45066;DHT22;30830;53.704;10.004;2022-09-01T10:04:55;20.80;93.00
45066;DHT22;30830;53.704;10.004;2022-09-01T10:07:34;20.80;93.70
45066;DHT22;30830;53.704;10.004;2022-09-01T10:10:24;20.90;93.60
45066;DHT22;30830;53.704;10.004;2022-09-01T10:12:53;20.90;93.50
45066;DHT22;30830;53.704;10.004;2022-09-01T10:15:24;20.90;92.50
45066;DHT22;30830;53.704;10.004;2022-09-01T10:17:51;20.90;92.60
45066;DHT22;30830;53.704;10.004;2022-09-01T10:20:21;20.90;92.60
45066;DHT22;30830;53.704;10.004;2022-09-01T10:22:48;20.80;92.30
45066;DHT22;30830;53.704;10.004;2022-09-01T10:25:21;20.80;92.10
45066;DHT22;30830;53.704;10.004;2022-09-01T10:27:50;20.80;91.70
45066;DHT22;30830;53.704;10.004;2022-09-01T10:30:19;20.70;91.50
45066;DHT22;30830;53.704;10.004;2022-09-01T10:32:51;20.70;91.10
45066;DHT22;30830;53.704;10.004;2022-09-01T10:35:28;20.80;90.20
45066;DHT22;30830;53.704;10.004;2022-09-01T10:37:56;20.80;90.70
45066;DHT22;30830;53.704;10.004;2022-09-01T10:42:54;21.00;91.30
45066;DHT22;30830;53.704;10.004;2022-09-01T10:45:31;21.00;91.30
45066;DHT22;30830;53.704;10.004;2022-09-01T10:48:29;21.00;91.10
45066;DHT22;30830;53.704;10.004;2022-09-01T10:53:49;21.00;90.80
45066;DHT22;30830;53.704;10.004;2022-09-01T10:56:36;21.00;90.60
45066;DHT22;30830;53.704;10.004;2022-09-01T10:59:05;21.00;90.10
45066;DHT22;30830;53.704;10.004;2022-09-01T11:04:11;21.00;90.30
45066;DHT22;30830;53.704;10.004;2022-09-01T11:09:46;21.00;90.50
45066;DHT22;30830;53.704;10.004;2022-09-01T11:12:26;20.90;90.30
45066;DHT22;30830;53.704;10.004;2022-09-01T11:17:35;20.80;91.10
45066;DHT22;30830;53.704;10.004;2022-09-01T11:20:37;20.70;91.50
45066;DHT22;30830;53.704;10.004;2022-09-01T11:23:09;20.60;91.50
45066;DHT22;30830;53.704;10.004;2022-09-01T11:39:48;20.20;92.90
45066;DHT22;30830;53.704;10.004;2022-09-01T11:44:25;20.40;92.80
45066;DHT22;30830;53.704;10.004;2022-09-01T11:46:57;20.60;92.10
45066;DHT22;30830;53.704;10.004;2022-09-01T11:49:31;20.70;91.60
45066;DHT22;30830;53.704;10.004;2022-09-01T11:51:58;20.90;91.50
45066;DHT22;30830;53.704;10.004;2022-09-01T11:54:26;21.10;91.40
45066;DHT22;30830;53.704;10.004;2022-09-01T11:56:53;21.20;91.50
45066;DHT22;30830;53.704;10.004;2022-09-01T12:01:44;21.50;91.10
45066;DHT22;30830;53.704;10.004;2022-09-01T12:04:39;21.70;89.20
45066;DHT22;30830;53.704;10.004;2022-09-01T12:07:08;21.80;90.20
45066;DHT22;30830;53.704;10.004;2022-09-01T12:09:42;21.80;90.80
45066;DHT22;30830;53.704;10.004;2022-09-01T12:12:28;21.90;90.90
45066;DHT22;30830;53.704;10.004;2022-09-01T12:15:21;22.00;90.00
45066;DHT22;30830;53.704;10.004;2022-09-01T12:17:47;22.10;90.50
45066;DHT22;30830;53.704;10.004;2022-09-01T12:20:24;22.20;90.30
45066;DHT22;30830;53.704;10.004;2022-09-01T12:22:50;22.20;90.00
45066;DHT22;30830;53.704;10.004;2022-09-01T12:25:22;22.00;90.70
45066;DHT22;30830;53.704;10.004;2022-09-01T12:27:48;22.00;90.80
45066;DHT22;30830;53.704;10.004;2022-09-01T12:30:14;21.90;90.90
45066;DHT22;30830;53.704;10.004;2022-09-01T12:32:40;21.90;90.60
45066;DHT22;30830;53.704;10.004;2022-09-01T12:35:15;21.80;91.00
45066;DHT22;30830;53.704;10.004;2022-09-01T12:37:42;21.90;90.70
45066;DHT22;30830;53.704;10.004;2022-09-01T12:40:32;22.10;90.80
45066;DHT22;30830;53.704;10.004;2022-09-01T12:42:58;22.10;90.00
45066;DHT22;30830;53.704;10.004;2022-09-01T12:45:41;22.20;90.30
45066;DHT22;30830;53.704;10.004;2022-09-01T12:51:03;21.80;89.60
45066;DHT22;30830;53.704;10.004;2022-09-01T12:53:33;21.60;90.00
45066;DHT22;30830;53.704;10.004;2022-09-01T12:56:20;21.60;90.00
45066;DHT22;30830;53.704;10.004;2022-09-01T12:58:50;21.50;90.40
45066;DHT22;30830;53.704;10.004;2022-09-01T13:01:28;21.50;90.60
45066;DHT22;30830;53.704;10.004;2022-09-01T13:06:32;21.40;90.70
45066;DHT22;30830;53.704;10.004;2022-09-01T13:08:57;21.40;90.60
45066;DHT22;30830;53.704;10.004;2022-09-01T13:11:23;21.50;90.40
45066;DHT22;30830;53.704;10.004;2022-09-01T13:13:48;21.60;90.80
45066;DHT22;30830;53.704;10.004;2022-09-01T13:16:14;21.70;90.30
45066;DHT22;30830;53.704;10.004;2022-09-01T13:18:41;21.70;90.00
45066;DHT22;30830;53.704;10.004;2022-09-01T13:21:07;21.70;90.20
45066;DHT22;30830;53.704;10.004;2022-09-01T13:23:33;21.70;90.00
45066;DHT22;30830;53.704;10.004;2022-09-01T13:25:58;21.60;89.80
45066;DHT22;30830;53.704;10.004;2022-09-01T13:28:24;21.60;90.50
45066;DHT22;30830;53.704;10.004;2022-09-01T13:30:59;21.50;89.70
45066;DHT22;30830;53.704;10.004;2022-09-01T13:33:27;21.40;89.90
45066;DHT22;30830;53.704;10.004;2022-09-01T13:35:53;21.40;89.90
45066;DHT22;30830;53.704;10.004;2022-09-01T13:38:19;21.30;90.20
45066;DHT22;30830;53.704;10.004;2022-09-01T13:40:47;21.30;90.30
45066;DHT22;30830;53.704;10.004;2022-09-01T13:43:14;21.20;89.90
45066;DHT22;30830;53.704;10.004;2022-09-01T13:45:40;21.20;90.20
45066;DHT22;30830;53.704;10.004;2022-09-01T13:48:07;21.20;90.40
45066;DHT22;30830;53.704;10.004;2022-09-01T13:50:34;21.30;90.50
45066;DHT22;30830;53.704;10.004;2022-09-01T13:52:59;21.30;89.70
45066;DHT22;30830;53.704;10.004;2022-09-01T13:55:31;21.30;90.20
45066;DHT22;30830;53.704;10.004;2022-09-01T13:57:57;21.30;90.00
45066;DHT22;30830;53.704;10.004;2022-09-01T14:00:29;21.40;88.80
45066;DHT22;30830;53.704;10.004;2022-09-01T14:02:59;21.40;89.80
45066;DHT22;30830;53.704;10.004;2022-09-01T14:05:30;21.40;89.30
45066;DHT22;30830;53.704;10.004;2022-09-01T14:07:57;21.40;89.90
45066;DHT22;30830;53.704;10.004;2022-09-01T14:10:24;21.30;87.90
45066;DHT22;30830;53.704;10.004;2022-09-01T14:12:51;21.20;88.50
45066;DHT22;30830;53.704;10.004;2022-09-01T14:15:18;21.20;87.90
45066;DHT22;30830;53.704;10.004;2022-09-01T14:17:46;21.20;87.60
45066;DHT22;30830;53.704;10.004;2022-09-01T14:20:21;21.20;87.90
45066;DHT22;30830;53.704;10.004;2022-09-01T14:22:48;21.30;87.80
45066;DHT22;30830;53.704;10.004;2022-09-01T14:25:16;21.50;87.10
45066;DHT22;30830;53.704;10.004;2022-09-01T14:27:43;21.60;86.10
45066;DHT22;30830;53.704;10.004;2022-09-01T14:30:11;21.70;86.20
45066;DHT22;30830;53.704;10.004;2022-09-01T14:32:37;21.80;86.90
45066;DHT22;30830;53.704;10.004;2022-09-01T14:35:03;21.80;86.60
45066;DHT22;30830;53.704;10.004;2022-09-01T14:37:33;21.90;86.50
45066;DHT22;30830;53.704;10.004;2022-09-01T14:39:59;22.00;86.60
45066;DHT22;30830;53.704;10.004;2022-09-01T14:42:25;22.20;86.70
45066;DHT22;30830;53.704;10.004;2022-09-01T14:44:54;22.20;85.80
45066;DHT22;30830;53.704;10.004;2022-09-01T14:47:20;22.10;86.40
45066;DHT22;30830;53.704;10.004;2022-09-01T14:49:46;21.90;85.90
45066;DHT22;30830;53.704;10.004;2022-09-01T14:52:12;21.80;86.80
45066;DHT22;30830;53.704;10.004;2022-09-01T14:54:40;21.80;86.30
45066;DHT22;30830;53.704;10.004;2022-09-01T14:57:07;21.60;87.50
45066;DHT22;30830;53.704;10.004;2022-09-01T14:59:33;21.50;87.70
45066;DHT22;30830;53.704;10.004;2022-09-01T15:01:59;21.50;87.70
45066;DHT22;30830;53.704;10.004;2022-09-01T15:04:25;21.60;87.70
45066;DHT22;30830;53.704;10.004;2022-09-01T15:06:52;21.60;87.60
45066;DHT22;30830;53.704;10.004;2022-09-01T15:09:18;21.60;88.50
45066;DHT22;30830;53.704;10.004;2022-09-01T15:11:43;21.60;88.60
45066;DHT22;30830;53.704;10.004;2022-09-01T15:14:09;21.60;88.00
45066;DHT22;30830;53.704;10.004;2022-09-01T15:16:36;21.60;88.60
45066;DHT22;30830;53.704;10.004;2022-09-01T15:19:10;21.50;88.10
45066;DHT22;30830;53.704;10.004;2022-09-01T15:21:37;21.50;88.90
45066;DHT22;30830;53.704;10.004;2022-09-01T15:24:05;21.40;89.20
45066;DHT22;30830;53.704;10.004;2022-09-01T15:26:31;21.30;90.00
45066;DHT22;30830;53.704;10.004;2022-09-01T15:28:57;21.20;90.00
45066;DHT22;30830;53.704;10.004;2022-09-01T15:31:24;21.20;90.10
45066;DHT22;30830;53.704;10.004;2022-09-01T15:33:54;21.20;90.00
45066;DHT22;30830;53.704;10.004;2022-09-01T15:36:21;21.20;90.30
45066;DHT22;30830;53.704;10.004;2022-09-01T15:38:48;21.10;90.40
45066;DHT22;30830;53.704;10.004;2022-09-01T15:41:19;21.20;90.40
45066;DHT22;30830;53.704;10.004;2022-09-01T15:43:45;21.10;90.40
45066;DHT22;30830;53.704;10.004;2022-09-01T15:46:11;21.10;90.30
45066;DHT22;30830;53.704;10.004;2022-09-01T15:48:38;21.00;90.40
45066;DHT22;30830;53.704;10.004;2022-09-01T15:53:49;20.90;90.60
45066;DHT22;30830;53.704;10.004;2022-09-01T15:56:15;20.80;90.80
45066;DHT22;30830;53.704;10.004;2022-09-01T15:58:46;20.80;91.00
45066;DHT22;30830;53.704;10.004;2022-09-01T16:01:13;20.80;90.80
45066;DHT22;30830;53.704;10.004;2022-09-01T16:03:39;20.70;90.90
45066;DHT22;30830;53.704;10.004;2022-09-01T16:06:05;20.70;91.10
45066;DHT22;30830;53.704;10.004;2022-09-01T16:08:32;20.70;90.80
45066;DHT22;30830;53.704;10.004;2022-09-01T16:10:58;20.70;90.90
45066;DHT22;30830;53.704;10.004;2022-09-01T16:13:24;20.70;91.10
45066;DHT22;30830;53.704;10.004;2022-09-01T16:16:19;20.60;91.20
45066;DHT22;30830;53.704;10.004;2022-09-01T16:19:03;20.50;91.10
45066;DHT22;30830;53.704;10.004;2022-09-01T16:24:10;20.50;91.20
45066;DHT22;30830;53.704;10.004;2022-09-01T16:26:36;20.40;91.40
45066;DHT22;30830;53.704;10.004;2022-09-01T16:29:11;20.40;91.40
45066;DHT22;30830;53.704;10.004;2022-09-01T16:31:38;20.30;91.30
45066;DHT22;30830;53.704;10.004;2022-09-01T16:34:16;20.30;91.30
45066;DHT22;30830;53.704;10.004;2022-09-01T16:36:57;20.20;91.50
45066;DHT22;30830;53.704;10.004;2022-09-01T16:39:38;20.20;91.50